Time;durP1;ratioP1;P1;durP2;ratioP2;P2;SDS_P1;SDS_P2;PMS_P1;PMS_P2;Temp;Humidity;BMP_temperature;BMP_pressure;BME280_temperature;BME280_humidity;BME280_pressure;Samples;Min_cycle;Max_cycle;Signal;HPM_P1;HPM_P2
2021/10/25 00:01:42;;;;;;;10.82;4.53;;;2.30;90.30;;;;;;6312776;28;20041;-85
2021/10/25 00:04:45;;;;;;;6.70;3.67;;;2.30;90.40;;;;;;6327436;28;20052;-85
2021/10/25 00:07:47;;;;;;;6.93;4.05;;;2.30;90.30;;;;;;6335748;28;20568;-84
2021/10/25 00:10:48;;;;;;;6.18;3.70;;;2.30;90.40;;;;;;6333053;28;20051;-85
2021/10/25 00:13:50;;;;;;;5.68;3.17;;;2.30;90.40;;;;;;6332954;28;20074;-84
2021/10/25 00:16:52;;;;;;;6.13;3.58;;;2.20;90.40;;;;;;6332531;28;20123;-86
2021/10/25 00:19:56;;;;;;;7.95;3.85;;;2.20;90.40;;;;;;6333269;28;20135;-86
2021/10/25 00:22:57;;;;;;;5.20;3.40;;;2.20;90.40;;;;;;6332370;28;20044;-84
2021/10/25 00:26:00;;;;;;;5.75;3.35;;;2.10;90.50;;;;;;6331082;28;20083;-84
2021/10/25 00:29:03;;;;;;;4.28;2.67;;;2.10;90.40;;;;;;6331453;28;20493;-85
2021/10/25 00:32:05;;;;;;;5.85;2.97;;;2.10;90.70;;;;;;6333683;28;20096;-84
2021/10/25 00:35:09;;;;;;;8.60;4.10;;;2.00;90.40;;;;;;6329484;28;20182;-85
2021/10/25 00:38:11;;;;;;;7.97;3.85;;;2.00;90.40;;;;;;6332964;28;20054;-84
2021/10/25 00:41:13;;;;;;;7.78;3.53;;;2.00;90.50;;;;;;6330051;28;20055;-84
2021/10/25 00:44:15;;;;;;;12.45;3.97;;;2.00;90.50;;;;;;6330401;28;20082;-85
2021/10/25 00:47:16;;;;;;;6.03;3.72;;;2.00;90.50;;;;;;6329797;28;20044;-85
2021/10/25 00:50:20;;;;;;;10.48;3.30;;;2.00;90.50;;;;;;6329257;28;20051;-85
2021/10/25 00:53:21;;;;;;;7.05;3.90;;;2.00;90.50;;;;;;6332212;28;20509;-85
2021/10/25 00:56:24;;;;;;;5.13;2.97;;;2.00;90.50;;;;;;6329780;28;20186;-84
2021/10/25 00:59:25;;;;;;;6.88;3.60;;;1.90;90.50;;;;;;6330147;28;20054;-84
2021/10/25 01:02:27;;;;;;;6.20;3.70;;;1.90;90.50;;;;;;6322904;28;20058;-85
2021/10/25 01:05:31;;;;;;;5.55;3.38;;;1.90;90.50;;;;;;6305670;28;20055;-85
2021/10/25 01:08:36;;;;;;;6.65;3.72;;;1.90;90.50;;;;;;6305010;28;20051;-85
2021/10/25 01:11:39;;;;;;;8.45;4.53;;;1.90;90.50;;;;;;6306688;28;20056;-85
2021/10/25 01:14:41;;;;;;;8.13;4.13;;;1.90;90.50;;;;;;6305490;28;20179;-84
2021/10/25 01:17:43;;;;;;;8.55;3.45;;;1.90;90.60;;;;;;6303925;28;20108;-84
2021/10/25 01:20:46;;;;;;;7.10;3.88;;;1.90;90.60;;;;;;6302819;28;20048;-84
2021/10/25 01:23:49;;;;;;;6.90;3.97;;;1.90;90.60;;;;;;6304855;28;20048;-85
2021/10/25 01:26:51;;;;;;;7.40;3.92;;;1.90;90.70;;;;;;6303406;28;20502;-85
2021/10/25 01:29:53;;;;;;;8.13;4.68;;;1.90;90.60;;;;;;6304679;28;20060;-85
2021/10/25 01:32:55;;;;;;;6.63;4.07;;;1.90;90.60;;;;;;6305213;28;20041;-85
2021/10/25 01:35:58;;;;;;;5.40;3.28;;;1.90;90.60;;;;;;6304906;28;20052;-86
2021/10/25 01:39:00;;;;;;;4.75;3.10;;;1.90;90.70;;;;;;6304934;28;20470;-85
2021/10/25 01:42:03;;;;;;;7.53;3.30;;;1.90;90.70;;;;;;6303401;28;20052;-86
2021/10/25 01:45:07;;;;;;;11.50;3.25;;;2.00;90.80;;;;;;6301419;28;20044;-85
2021/10/25 01:48:09;;;;;;;6.63;3.55;;;2.00;90.80;;;;;;6301302;28;20101;-85
2021/10/25 01:51:13;;;;;;;9.40;4.05;;;2.00;90.80;;;;;;6297649;28;20087;-85
2021/10/25 01:54:15;;;;;;;8.15;3.47;;;2.00;90.70;;;;;;6297108;28;20050;-85
2021/10/25 01:57:17;;;;;;;4.63;3.70;;;2.00;90.80;;;;;;6297578;28;20120;-85
2021/10/25 02:00:18;;;;;;;5.00;2.95;;;1.90;90.70;;;;;;6296189;28;20805;-83
2021/10/25 02:03:20;;;;;;;9.05;2.90;;;1.90;90.70;;;;;;6297121;28;20514;-83
2021/10/25 02:06:23;;;;;;;5.53;3.25;;;1.90;90.70;;;;;;6297791;28;20057;-84
2021/10/25 02:09:25;;;;;;;7.82;3.28;;;1.90;90.80;;;;;;6296814;28;20040;-85
2021/10/25 02:12:27;;;;;;;5.38;3.25;;;1.90;90.90;;;;;;6297294;28;20044;-85
2021/10/25 02:15:29;;;;;;;5.40;2.85;;;1.90;90.90;;;;;;6297878;28;20059;-85
2021/10/25 02:18:31;;;;;;;9.63;3.40;;;1.90;90.80;;;;;;6297641;28;20053;-85
2021/10/25 02:21:34;;;;;;;8.73;3.67;;;1.90;90.70;;;;;;6297323;28;20050;-84
2021/10/25 02:24:36;;;;;;;7.10;3.03;;;1.90;90.80;;;;;;6300002;28;20289;-85
2021/10/25 02:27:38;;;;;;;10.18;3.15;;;1.80;90.70;;;;;;6304597;28;20083;-85
2021/10/25 02:30:40;;;;;;;3.72;2.35;;;1.80;90.70;;;;;;6306071;28;20049;-85
2021/10/25 02:33:42;;;;;;;4.35;2.45;;;1.80;91.00;;;;;;6305470;28;20044;-85
2021/10/25 02:36:45;;;;;;;5.57;2.85;;;1.80;90.70;;;;;;6306564;28;20128;-86
2021/10/25 02:39:47;;;;;;;6.57;2.78;;;1.70;90.70;;;;;;6304989;28;20106;-86
2021/10/25 02:42:49;;;;;;;3.50;2.50;;;1.70;90.70;;;;;;6310462;28;20055;-86
2021/10/25 02:45:51;;;;;;;6.53;3.13;;;1.60;90.70;;;;;;6311205;28;20053;-85
2021/10/25 02:48:53;;;;;;;7.00;2.60;;;1.60;90.70;;;;;;6308471;28;20045;-85
2021/10/25 02:51:56;;;;;;;6.95;3.90;;;1.50;90.70;;;;;;6308180;28;20053;-85
2021/10/25 02:54:58;;;;;;;4.82;2.53;;;1.50;90.80;;;;;;6310006;28;20048;-85
2021/10/25 02:58:00;;;;;;;3.95;2.53;;;1.50;90.80;;;;;;6317948;28;20031;-86
2021/10/25 03:01:02;;;;;;;4.55;2.90;;;1.50;90.80;;;;;;6299283;28;20094;-85
2021/10/25 03:04:05;;;;;;;5.93;3.47;;;1.50;90.90;;;;;;6291172;28;20498;-83
2021/10/25 03:07:08;;;;;;;9.57;4.13;;;1.50;90.90;;;;;;6296763;28;20134;-82
2021/10/25 03:10:10;;;;;;;4.72;2.67;;;1.50;90.90;;;;;;6298224;28;20048;-86
2021/10/25 03:13:13;;;;;;;3.90;2.35;;;1.50;90.80;;;;;;6296648;28;20514;-87
2021/10/25 03:16:15;;;;;;;3.60;2.35;;;1.40;90.70;;;;;;6298491;28;20379;-86
2021/10/25 03:19:17;;;;;;;5.72;2.92;;;1.40;90.80;;;;;;6300354;28;20056;-85
2021/10/25 03:22:20;;;;;;;4.40;2.92;;;1.40;90.80;;;;;;6300054;28;20070;-86
2021/10/25 03:25:22;;;;;;;3.63;2.05;;;1.40;90.80;;;;;;6300469;28;20533;-85
2021/10/25 03:28:24;;;;;;;5.95;2.80;;;1.40;90.80;;;;;;6300712;28;20474;-85
2021/10/25 03:31:26;;;;;;;10.02;2.70;;;1.40;90.90;;;;;;6301196;28;20048;-87
2021/10/25 03:34:29;;;;;;;5.50;3.00;;;1.30;90.90;;;;;;6305250;28;20040;-85
2021/10/25 03:37:34;;;;;;;4.53;2.80;;;1.40;90.90;;;;;;6308312;28;20060;-85
2021/10/25 03:40:36;;;;;;;2.45;2.15;;;1.50;91.00;;;;;;6308686;28;20147;-84
2021/10/25 03:43:43;;;;;;;13.32;4.13;;;1.50;91.00;;;;;;6309314;28;20516;-85
2021/10/25 03:46:47;;;;;;;5.55;2.97;;;1.50;90.90;;;;;;6308778;28;20506;-85
2021/10/25 03:49:55;;;;;;;5.43;2.53;;;1.40;90.90;;;;;;6307787;28;20438;-84
2021/10/25 03:53:04;;;;;;;3.75;2.60;;;1.40;91.00;;;;;;6309082;28;20040;-85
2021/10/25 03:56:10;;;;;;;4.65;2.88;;;1.40;90.90;;;;;;6306890;28;20043;-85
2021/10/25 04:02:41;;;;;;;9.13;2.78;;;1.40;91.00;;;;;;6308495;28;20037;-84
2021/10/25 04:28:58;;;;;;;3.97;3.20;;;1.40;91.10;;;;;;6312686;28;20062;-85
2021/10/25 04:32:06;;;;;;;5.82;3.30;;;1.30;91.00;;;;;;6312977;28;20060;-86
2021/10/25 04:35:08;;;;;;;;;;;1.40;91.00;;;;;;6315159;28;20068;-85
2021/10/25 04:38:09;;;;;;;7.85;3.78;;;1.30;91.00;;;;;;6310688;28;20337;-85
2021/10/25 04:41:13;;;;;;;14.68;3.85;;;1.20;90.90;;;;;;6311214;28;20059;-85
2021/10/25 04:44:14;;;;;;;5.00;3.03;;;1.20;90.90;;;;;;6310763;28;20108;-84
2021/10/25 04:47:17;;;;;;;5.55;2.80;;;1.20;91.10;;;;;;6311210;28;20052;-85
2021/10/25 04:50:18;;;;;;;10.20;3.85;;;1.20;91.20;;;;;;6312660;28;20169;-85
2021/10/25 04:53:20;;;;;;;7.28;3.78;;;1.20;91.10;;;;;;6310613;28;20055;-85
2021/10/25 04:56:23;;;;;;;5.45;3.05;;;1.20;91.20;;;;;;6310166;28;20109;-85
2021/10/25 04:59:25;;;;;;;6.43;2.67;;;1.20;91.10;;;;;;6308254;28;20048;-84
2021/10/25 05:02:27;;;;;;;12.50;3.28;;;1.20;91.20;;;;;;6306303;28;20116;-85
2021/10/25 05:05:29;;;;;;;6.55;3.20;;;1.20;91.20;;;;;;6305511;28;20497;-85
2021/10/25 05:08:31;;;;;;;15.00;3.25;;;1.20;91.20;;;;;;6296679;28;20174;-84
2021/10/25 05:11:34;;;;;;;13.75;3.50;;;1.20;91.30;;;;;;6306905;28;20194;-84
2021/10/25 05:14:36;;;;;;;4.88;2.75;;;1.10;91.20;;;;;;6312225;28;20044;-85
2021/10/25 05:17:37;;;;;;;6.18;3.47;;;1.10;91.30;;;;;;6305244;28;20048;-86
2021/10/25 05:20:40;;;;;;;9.15;3.67;;;1.10;91.30;;;;;;6305222;28;20052;-85
2021/10/25 05:23:41;;;;;;;5.82;3.35;;;1.10;91.30;;;;;;6310410;28;20052;-86
2021/10/25 05:26:44;;;;;;;10.23;2.78;;;1.10;91.30;;;;;;6308151;28;20112;-85
2021/10/25 05:29:46;;;;;;;7.55;3.17;;;1.10;91.40;;;;;;6308994;28;20118;-82
2021/10/25 05:32:48;;;;;;;6.63;3.72;;;1.10;91.40;;;;;;6307591;28;20047;-85
2021/10/25 05:35:50;;;;;;;6.47;3.38;;;1.20;91.40;;;;;;6309349;28;20108;-84
2021/10/25 05:38:52;;;;;;;8.00;2.78;;;1.20;91.40;;;;;;6306985;28;20108;-83
2021/10/25 05:41:55;;;;;;;5.50;2.70;;;1.30;91.40;;;;;;6306012;28;20052;-82
2021/10/25 05:44:57;;;;;;;6.53;2.90;;;1.30;91.40;;;;;;6307213;28;20044;-83
2021/10/25 05:47:59;;;;;;;4.30;2.60;;;1.30;91.30;;;;;;6306971;28;20072;-83
2021/10/25 05:51:01;;;;;;;6.93;4.25;;;1.30;91.30;;;;;;6308051;28;20049;-83
2021/10/25 05:54:05;;;;;;;11.05;4.68;;;1.30;91.60;;;;;;6306538;28;20055;-83
2021/10/25 05:57:08;;;;;;;6.68;3.03;;;1.30;91.30;;;;;;6306119;28;20049;-83
2021/10/25 06:00:13;;;;;;;6.88;3.28;;;1.30;91.40;;;;;;6305264;28;20480;-83
2021/10/25 06:03:17;;;;;;;12.23;4.40;;;1.40;91.40;;;;;;6308283;28;20048;-83
2021/10/25 06:06:19;;;;;;;8.80;3.00;;;1.30;91.20;;;;;;6308407;28;20116;-82
2021/10/25 06:09:21;;;;;;;9.70;2.83;;;1.30;91.30;;;;;;6298276;28;20041;-83
2021/10/25 06:12:25;;;;;;;7.28;3.38;;;1.40;91.30;;;;;;6306951;28;20131;-83
2021/10/25 06:15:34;;;;;;;11.30;2.95;;;1.40;91.40;;;;;;6308080;28;20048;-83
2021/10/25 06:18:35;;;;;;;12.02;3.20;;;1.40;91.40;;;;;;6320415;28;20040;-83
2021/10/25 06:21:38;;;;;;;9.70;2.80;;;1.40;91.30;;;;;;6303898;28;20102;-82
2021/10/25 06:24:40;;;;;;;8.70;2.95;;;1.50;91.40;;;;;;6304149;28;20068;-83
2021/10/25 06:27:43;;;;;;;17.42;5.20;;;1.50;91.40;;;;;;6304714;28;20059;-83
2021/10/25 06:30:53;;;;;;;12.52;4.03;;;1.50;91.30;;;;;;6304735;28;20524;-83
2021/10/25 06:33:59;;;;;;;6.57;2.63;;;1.60;91.40;;;;;;6304795;28;20133;-82
2021/10/25 06:37:01;;;;;;;6.03;3.17;;;1.60;91.50;;;;;;6304473;28;20036;-83
2021/10/25 06:40:06;;;;;;;5.85;3.05;;;1.60;91.50;;;;;;6304702;28;20143;-83
2021/10/25 06:43:11;;;;;;;7.72;3.40;;;1.70;91.60;;;;;;6304053;28;20084;-83
2021/10/25 06:46:14;;;;;;;11.32;4.05;;;1.70;91.60;;;;;;6303760;28;20048;-83
2021/10/25 06:49:16;;;;;;;8.23;3.40;;;1.80;91.50;;;;;;6302774;28;20056;-85
2021/10/25 06:52:18;;;;;;;5.55;3.33;;;1.80;91.50;;;;;;6303073;28;20174;-84
2021/10/25 06:55:19;;;;;;;5.70;4.00;;;1.90;91.50;;;;;;6303641;28;20128;-86
2021/10/25 06:58:23;;;;;;;10.45;5.25;;;2.00;91.60;;;;;;6299349;28;20183;-85
2021/10/25 07:01:25;;;;;;;30.08;12.40;;;2.10;91.60;;;;;;6319484;28;20153;-85
2021/10/25 07:04:27;;;;;;;26.67;9.77;;;2.20;91.60;;;;;;6328605;28;20131;-85
2021/10/25 07:07:29;;;;;;;24.73;10.73;;;2.40;91.80;;;;;;6326193;28;20135;-85
2021/10/25 07:10:31;;;;;;;19.00;8.88;;;2.70;91.90;;;;;;6298114;28;20052;-84
2021/10/25 07:13:36;;;;;;;10.70;5.40;;;3.10;92.10;;;;;;6306484;28;20178;-84
2021/10/25 07:16:41;;;;;;;14.25;4.30;;;3.50;91.70;;;;;;6305680;28;20057;-85
2021/10/25 07:26:49;;;;;;;6.57;2.63;;;4.50;91.00;;;;;;6333235;28;20036;-84
2021/10/25 08:06:31;;;;;;;9.95;3.40;;;7.10;87.90;;;;;;6355213;28;20096;-85
2021/10/25 08:09:46;;;;;;;8.70;2.88;;;7.40;87.80;;;;;;6338943;28;20068;-86
2021/10/25 08:12:52;;;;;;;7.65;3.58;;;7.60;87.60;;;;;;6326140;28;20048;-85
2021/10/25 08:15:54;;;;;;;6.22;3.15;;;8.00;87.10;;;;;;6327648;28;20059;-86
2021/10/25 08:19:11;;;;;;;6.65;2.83;;;8.30;86.60;;;;;;6325906;28;20181;-83
2021/10/25 08:22:16;;;;;;;5.65;2.75;;;8.70;86.30;;;;;;6328978;28;20066;-83
2021/10/25 08:25:18;;;;;;;5.43;3.03;;;9.20;85.40;;;;;;6331067;28;20090;-85
2021/10/25 08:28:20;;;;;;;8.35;3.17;;;9.80;84.30;;;;;;6329044;28;20425;-85
2021/10/25 08:31:22;;;;;;;6.82;3.25;;;10.20;82.70;;;;;;6331876;28;20072;-85
2021/10/25 08:34:54;;;;;;;5.97;3.10;;;10.60;81.50;;;;;;6355637;28;20051;-85
2021/10/25 08:41:31;;;;;;;5.90;2.42;;;11.30;78.70;;;;;;6299367;28;20135;-84
2021/10/25 08:44:33;;;;;;;5.53;3.22;;;11.50;76.90;;;;;;6300101;28;20032;-87
2021/10/25 08:47:38;;;;;;;5.05;2.88;;;11.60;75.90;;;;;;6333015;28;20052;-86
2021/10/25 08:50:42;;;;;;;6.43;4.15;;;11.80;75.30;;;;;;6304103;28;20049;-86
2021/10/25 08:53:44;;;;;;;9.18;3.28;;;12.00;75.00;;;;;;6302466;28;20052;-85
2021/10/25 08:56:46;;;;;;;7.70;3.65;;;12.40;74.20;;;;;;6301187;28;20055;-86
2021/10/25 08:59:58;;;;;;;7.80;3.20;;;12.80;72.70;;;;;;6312374;28;20043;-85
2021/10/25 09:03:01;;;;;;;7.10;3.15;;;13.10;70.80;;;;;;6345859;28;20126;-85
2021/10/25 09:06:05;;;;;;;9.52;3.40;;;13.50;69.00;;;;;;6353213;28;20044;-87
2021/10/25 09:09:07;;;;;;;5.22;3.20;;;13.70;66.80;;;;;;6353770;28;20135;-86
2021/10/25 09:12:12;;;;;;;5.97;3.88;;;13.90;66.00;;;;;;6309431;28;20048;-85
2021/10/25 09:15:16;;;;;;;5.47;3.50;;;14.20;65.80;;;;;;6301438;28;20546;-86
2021/10/25 09:18:19;;;;;;;6.07;2.78;;;14.50;64.50;;;;;;6303651;28;20048;-85
2021/10/25 09:21:22;;;;;;;10.00;3.03;;;14.60;63.70;;;;;;6300633;28;20095;-86
2021/10/25 09:24:25;;;;;;;6.82;3.35;;;14.90;62.60;;;;;;6302585;28;20115;-87
2021/10/25 09:27:30;;;;;;;6.50;3.15;;;15.00;61.50;;;;;;6303674;28;20509;-87
2021/10/25 09:30:39;;;;;;;4.30;3.28;;;15.20;60.70;;;;;;6320115;28;20401;-86
2021/10/25 09:33:42;;;;;;;7.38;2.45;;;15.30;60.30;;;;;;6347605;28;20518;-85
2021/10/25 09:36:55;;;;;;;4.63;2.70;;;15.50;59.60;;;;;;6354556;28;20525;-85
2021/10/25 09:40:02;;;;;;;5.05;3.40;;;15.80;59.50;;;;;;6367958;28;20107;-85
2021/10/25 09:43:19;;;;;;;12.18;4.75;;;16.00;59.00;;;;;;6349291;28;20055;-86
2021/10/25 09:46:35;;;;;;;5.78;2.55;;;16.10;58.70;;;;;;6348272;28;20043;-84
2021/10/25 09:49:38;;;;;;;3.83;2.05;;;16.20;58.90;;;;;;6348256;28;20427;-86
2021/10/25 09:52:43;;;;;;;6.07;3.03;;;16.10;58.70;;;;;;6347194;28;20065;-87
2021/10/25 09:55:47;;;;;;;4.93;2.35;;;16.00;59.00;;;;;;6349111;28;20096;-87
2021/10/25 09:58:56;;;;;;;7.03;2.55;;;16.00;59.20;;;;;;6344891;28;20752;-85
2021/10/25 10:01:58;;;;;;;2.80;1.90;;;16.10;58.70;;;;;;6335089;28;20044;-86
2021/10/25 10:05:03;;;;;;;4.47;2.35;;;16.30;58.30;;;;;;6348378;28;20100;-87
2021/10/25 10:08:07;;;;;;;6.63;2.28;;;16.60;57.90;;;;;;6348125;28;20260;-88
2021/10/25 10:11:12;;;;;;;3.75;2.13;;;17.00;56.80;;;;;;6337001;28;20133;-87
2021/10/25 10:14:14;;;;;;;3.10;1.85;;;17.10;55.80;;;;;;6315242;28;20044;-89
2021/10/25 10:17:20;;;;;;;6.97;2.35;;;17.30;55.60;;;;;;6322316;28;20044;-87
2021/10/25 10:20:26;;;;;;;5.43;1.92;;;17.40;54.70;;;;;;6323521;28;20122;-87
2021/10/25 10:23:30;;;;;;;5.47;2.08;;;17.60;54.40;;;;;;6324222;28;20055;-88
2021/10/25 10:26:33;;;;;;;2.70;1.25;;;17.70;54.10;;;;;;6322636;28;20036;-87
2021/10/25 10:29:40;;;;;;;3.08;1.50;;;18.00;53.70;;;;;;6315143;28;20053;-88
2021/10/25 10:32:41;;;;;;;3.05;1.80;;;18.10;53.10;;;;;;6338970;28;20050;-86
2021/10/25 10:35:46;;;;;;;2.55;1.63;;;17.80;53.60;;;;;;6349954;28;20177;-86
2021/10/25 10:38:52;;;;;;;6.18;2.75;;;17.60;54.00;;;;;;6349020;27;20058;-86
2021/10/25 10:41:57;;;;;;;3.90;1.88;;;17.80;53.40;;;;;;6346440;28;20055;-87
2021/10/25 10:45:01;;;;;;;3.22;2.15;;;18.10;52.20;;;;;;6347081;28;20081;-85
2021/10/25 10:48:03;;;;;;;4.05;2.10;;;18.60;52.20;;;;;;6346102;28;20086;-85
2021/10/25 10:51:10;;;;;;;5.45;1.92;;;19.00;50.50;;;;;;6346947;28;20055;-87
2021/10/25 10:54:22;;;;;;;2.72;1.58;;;19.30;50.00;;;;;;6346367;28;20523;-87
2021/10/25 10:57:41;;;;;;;3.65;2.00;;;19.90;49.30;;;;;;6347924;28;20162;-84
2021/10/25 11:00:47;;;;;;;4.75;1.80;;;20.20;48.10;;;;;;6336688;28;20044;-82
2021/10/25 11:03:58;;;;;;;4.68;1.75;;;20.30;47.50;;;;;;6342647;28;20047;-85
2021/10/25 11:07:01;;;;;;;5.30;1.70;;;20.30;47.00;;;;;;6346476;28;20040;-86
2021/10/25 11:10:06;;;;;;;3.38;1.77;;;20.30;46.70;;;;;;6345325;28;20108;-87
2021/10/25 11:13:13;;;;;;;2.88;1.45;;;20.40;47.00;;;;;;6321197;28;20531;-84
2021/10/25 11:16:19;;;;;;;3.28;1.50;;;20.40;46.80;;;;;;6320856;28;20056;-85
2021/10/25 11:19:21;;;;;;;2.95;1.42;;;20.40;46.90;;;;;;6320568;28;20051;-83
2021/10/25 11:22:27;;;;;;;2.85;1.73;;;20.40;47.10;;;;;;6320523;28;20048;-86
2021/10/25 11:25:38;;;;;;;4.63;1.27;;;20.20;46.70;;;;;;6321701;28;20057;-85
2021/10/25 11:28:52;;;;;;;4.90;2.17;;;20.50;46.20;;;;;;6319825;28;20151;-85
2021/10/25 11:31:55;;;;;;;4.90;1.75;;;20.40;45.90;;;;;;6327643;28;20040;-86
2021/10/25 11:38:23;;;;;;;2.17;1.58;;;21.00;45.90;;;;;;6344539;28;20039;-85
2021/10/25 11:41:56;;;;;;;2.08;1.42;;;21.10;45.70;;;;;;6322847;28;20135;-85
2021/10/25 11:48:16;;;;;;;;;;;21.60;44.50;;;;;;6345782;28;20127;-84
2021/10/25 11:51:18;;;;;;;6.90;1.85;;;22.00;44.90;;;;;;6345333;28;20125;-87
2021/10/25 11:54:21;;;;;;;6.72;1.52;;;22.30;43.80;;;;;;6346762;28;20048;-86
2021/10/25 11:57:28;;;;;;;3.60;1.45;;;22.50;43.20;;;;;;6356830;27;20039;-83
2021/10/25 12:00:31;;;;;;;4.00;2.55;;;22.60;43.10;;;;;;6348596;27;20060;-83
2021/10/25 12:03:39;;;;;;;5.55;1.25;;;22.60;42.60;;;;;;6342792;28;20047;-85
2021/10/25 12:06:52;;;;;;;6.78;5.30;;;22.70;42.70;;;;;;6348324;28;20088;-85
2021/10/25 12:10:15;;;;;;;3.47;2.30;;;23.00;42.40;;;;;;6354160;28;20130;-83
2021/10/25 12:13:19;;;;;;;8.15;1.30;;;23.20;41.90;;;;;;6340957;28;20474;-81
2021/10/25 12:16:21;;;;;;;122.78;70.03;;;23.30;41.30;;;;;;6299596;28;20098;-84
2021/10/25 12:19:23;;;;;;;5.50;2.58;;;23.50;41.40;;;;;;6300539;28;20063;-83
2021/10/25 12:22:25;;;;;;;3.70;1.60;;;23.70;40.80;;;;;;6300393;28;20052;-84
2021/10/25 12:25:29;;;;;;;2.38;1.38;;;23.70;40.90;;;;;;6300560;28;20418;-84
2021/10/25 12:28:36;;;;;;;2.90;2.03;;;23.90;40.30;;;;;;6301114;28;20183;-86
2021/10/25 12:31:37;;;;;;;2.90;1.27;;;24.10;40.00;;;;;;6340829;28;20390;-85
2021/10/25 12:34:53;;;;;;;4.63;1.50;;;24.10;39.40;;;;;;6359094;28;20116;-85
2021/10/25 12:37:59;;;;;;;8.80;5.10;;;24.20;39.30;;;;;;6359878;28;20128;-83
2021/10/25 12:41:03;;;;;;;8.90;7.90;;;24.30;39.00;;;;;;6350020;28;20505;-86
2021/10/25 12:44:06;;;;;;;9.18;6.07;;;24.50;38.70;;;;;;6350069;28;20047;-88
2021/10/25 12:47:10;;;;;;;3.75;1.58;;;24.50;38.40;;;;;;6350053;28;20051;-88
2021/10/25 12:50:14;;;;;;;7.57;1.98;;;24.50;38.10;;;;;;6347282;28;20051;-88
2021/10/25 12:53:15;;;;;;;2.30;1.60;;;24.50;38.30;;;;;;6349273;28;20051;-87
2021/10/25 12:56:25;;;;;;;2.33;1.20;;;24.50;38.20;;;;;;6349330;28;20127;-85
2021/10/25 12:59:29;;;;;;;2.63;1.50;;;24.60;38.30;;;;;;6349746;28;20047;-88
2021/10/25 13:02:31;;;;;;;4.35;1.50;;;24.60;38.20;;;;;;6332332;28;20064;-87
2021/10/25 13:05:34;;;;;;;4.85;1.92;;;24.60;38.10;;;;;;6348378;28;20126;-88
2021/10/25 13:08:37;;;;;;;3.75;1.25;;;24.70;38.00;;;;;;6348323;27;20078;-87
2021/10/25 13:11:39;;;;;;;2.97;1.10;;;24.70;37.60;;;;;;6318481;22;20045;-78
2021/10/25 13:14:42;;;;;;;2.35;1.45;;;24.60;38.10;;;;;;6269891;28;20053;-78
2021/10/25 13:17:44;;;;;;;3.08;1.20;;;24.60;38.10;;;;;;6273784;28;20044;-78
2021/10/25 13:20:46;;;;;;;1.70;0.90;;;24.80;37.70;;;;;;6277058;28;20571;-78
2021/10/25 13:23:48;;;;;;;6.05;2.90;;;24.70;37.50;;;;;;6277790;28;20055;-78
2021/10/25 13:26:51;;;;;;;2.83;1.35;;;24.60;37.90;;;;;;6277304;28;20041;-78
2021/10/25 13:29:54;;;;;;;8.13;1.60;;;24.40;38.00;;;;;;6265111;28;20045;-78
2021/10/25 13:32:56;;;;;;;7.55;1.70;;;24.30;38.00;;;;;;6253418;28;20053;-79
2021/10/25 13:35:58;;;;;;;4.30;1.40;;;24.40;38.00;;;;;;6253376;28;20049;-79
2021/10/25 13:39:00;;;;;;;3.70;1.85;;;24.60;37.70;;;;;;6252472;28;20053;-79
2021/10/25 13:42:02;;;;;;;8.82;4.00;;;24.60;37.50;;;;;;6252682;28;20415;-78
2021/10/25 13:45:06;;;;;;;5.38;4.05;;;24.60;37.50;;;;;;6253137;28;20057;-79
2021/10/25 13:48:07;;;;;;;3.10;1.17;;;24.50;37.50;;;;;;6253974;28;20049;-79
2021/10/25 13:51:10;;;;;;;7.53;3.78;;;24.60;37.50;;;;;;6251951;28;20059;-79
2021/10/25 13:54:12;;;;;;;4.72;2.10;;;24.60;37.40;;;;;;6253590;28;20056;-79
2021/10/25 13:57:17;;;;;;;3.08;1.73;;;24.60;37.30;;;;;;6251782;28;20129;-79
2021/10/25 14:00:20;;;;;;;11.05;7.35;;;24.40;37.40;;;;;;6252796;28;20093;-81
2021/10/25 14:03:22;;;;;;;13.88;9.25;;;24.30;37.70;;;;;;6255163;28;20408;-80
2021/10/25 14:06:27;;;;;;;16.85;10.70;;;24.30;37.80;;;;;;6253530;28;20442;-81
2021/10/25 14:09:29;;;;;;;6.35;3.83;;;24.30;38.10;;;;;;6253807;28;20048;-80
2021/10/25 14:12:31;;;;;;;4.75;2.33;;;24.20;37.90;;;;;;6255463;28;20068;-80
2021/10/25 14:15:44;;;;;;;1.95;1.30;;;24.10;38.70;;;;;;6258431;28;20127;-79
2021/10/25 14:18:46;;;;;;;3.50;1.55;;;24.00;38.20;;;;;;6229521;28;20061;-80
2021/10/25 14:21:50;;;;;;;1.10;0.73;;;23.80;38.60;;;;;;6229318;28;20087;-81
2021/10/25 14:24:52;;;;;;;2.10;1.30;;;23.70;39.20;;;;;;6229295;28;20056;-80
2021/10/25 14:27:55;;;;;;;2.75;1.20;;;23.70;39.30;;;;;;6230346;28;20041;-79
2021/10/25 14:31:00;;;;;;;4.13;0.93;;;23.60;40.50;;;;;;6248782;28;20049;-81
2021/10/25 14:34:02;;;;;;;1.73;1.13;;;23.50;41.20;;;;;;6256247;28;20049;-82
2021/10/25 14:37:07;;;;;;;3.50;0.88;;;23.60;41.60;;;;;;6252905;28;20038;-80
2021/10/25 14:40:11;;;;;;;3.28;1.05;;;23.50;41.30;;;;;;6253484;28;20061;-81
2021/10/25 14:43:16;;;;;;;2.50;1.27;;;23.40;41.80;;;;;;6251292;28;20140;-81
2021/10/25 14:46:33;;;;;;;9.05;1.50;;;23.20;42.20;;;;;;6252431;28;20081;-81
2021/10/25 14:56:15;;;;;;;5.65;1.55;;;22.60;43.40;;;;;;6249973;28;20049;-81
2021/10/25 14:59:17;;;;;;;4.68;1.38;;;22.40;44.60;;;;;;6251451;28;20053;-81
2021/10/25 15:02:21;;;;;;;4.10;1.40;;;22.30;44.80;;;;;;6249817;28;20226;-81
2021/10/25 15:05:23;;;;;;;3.15;1.08;;;22.00;45.90;;;;;;6249208;28;20566;-80
2021/10/25 15:08:26;;;;;;;7.07;1.48;;;21.80;46.40;;;;;;6249921;28;20080;-80
2021/10/25 15:11:28;;;;;;;4.35;1.42;;;21.60;46.90;;;;;;6248719;28;20080;-79
2021/10/25 15:14:31;;;;;;;4.55;1.75;;;21.20;47.60;;;;;;6249817;28;20119;-80
2021/10/25 15:17:34;;;;;;;8.70;1.67;;;20.70;49.20;;;;;;6257488;28;20057;-81
2021/10/25 15:20:36;;;;;;;4.35;1.17;;;20.30;50.50;;;;;;6252822;28;20426;-81
2021/10/25 15:23:38;;;;;;;2.50;1.42;;;19.90;51.30;;;;;;6252617;28;20057;-80
2021/10/25 15:26:45;;;;;;;2.78;1.50;;;19.70;52.20;;;;;;6250329;28;20038;-80
2021/10/25 15:29:49;;;;;;;3.80;1.50;;;19.30;53.20;;;;;;6251405;28;20049;-80
2021/10/25 15:32:52;;;;;;;3.30;1.40;;;18.90;54.20;;;;;;6253924;28;20263;-79
2021/10/25 15:35:56;;;;;;;2.80;1.52;;;18.40;55.50;;;;;;6253457;28;20050;-78
2021/10/25 15:38:58;;;;;;;2.75;1.52;;;18.10;56.70;;;;;;6258716;28;20052;-78
2021/10/25 15:42:00;;;;;;;3.25;1.40;;;17.70;57.80;;;;;;6261157;28;20056;-80
2021/10/25 15:45:03;;;;;;;6.00;1.38;;;17.40;59.20;;;;;;6253864;28;20507;-80
2021/10/25 15:48:06;;;;;;;2.55;1.67;;;17.00;60.30;;;;;;6252856;28;20578;-80
2021/10/25 15:51:08;;;;;;;3.05;1.65;;;16.60;61.50;;;;;;6253284;28;20494;-80
2021/10/25 15:54:10;;;;;;;6.80;1.90;;;16.30;62.40;;;;;;6254299;28;20113;-79
2021/10/25 15:57:14;;;;;;;6.68;2.63;;;16.00;63.60;;;;;;6250831;28;20068;-78
2021/10/25 16:00:17;;;;;;;5.07;2.88;;;15.70;64.60;;;;;;6250084;28;20403;-78
2021/10/25 16:03:20;;;;;;;3.75;1.95;;;15.40;65.50;;;;;;6251689;28;20057;-78
2021/10/25 16:06:22;;;;;;;7.35;3.25;;;15.10;66.60;;;;;;6253306;28;20046;-79
2021/10/25 16:09:23;;;;;;;7.93;2.53;;;14.80;67.70;;;;;;6251699;28;20139;-77
2021/10/25 16:12:25;;;;;;;6.50;2.22;;;14.50;68.90;;;;;;6251575;28;20513;-79
2021/10/25 16:15:27;;;;;;;12.65;2.40;;;14.30;70.00;;;;;;6253153;28;20053;-79
2021/10/25 16:18:30;;;;;;;5.25;2.47;;;14.00;71.20;;;;;;6269814;28;20132;-79
2021/10/25 16:21:33;;;;;;;4.68;1.95;;;13.80;72.20;;;;;;6276497;28;20053;-81
2021/10/25 16:24:36;;;;;;;3.90;1.98;;;13.60;73.00;;;;;;6275466;28;20050;-80
2021/10/25 16:27:41;;;;;;;7.65;2.88;;;13.30;73.80;;;;;;6277473;28;20055;-78
2021/10/25 16:30:43;;;;;;;5.20;2.90;;;13.10;74.60;;;;;;6259953;28;20048;-81
2021/10/25 16:33:46;;;;;;;4.05;2.40;;;12.80;74.90;;;;;;6253557;28;20527;-78
2021/10/25 16:36:48;;;;;;;5.28;2.53;;;12.60;76.00;;;;;;6253918;28;20455;-80
2021/10/25 16:39:50;;;;;;;3.63;1.83;;;12.40;76.90;;;;;;6253178;28;20152;-78
2021/10/25 16:42:52;;;;;;;3.88;1.73;;;12.20;77.60;;;;;;6251994;28;20053;-80
2021/10/25 16:45:54;;;;;;;8.73;2.20;;;12.00;78.00;;;;;;6252756;28;20527;-79
2021/10/25 16:48:57;;;;;;;7.80;2.92;;;11.80;78.70;;;;;;6252808;28;20046;-79
2021/10/25 16:52:06;;;;;;;6.55;2.05;;;11.70;79.60;;;;;;6253369;28;20133;-79
2021/10/25 16:55:26;;;;;;;5.97;1.88;;;11.60;80.10;;;;;;6254219;28;20132;-80
2021/10/25 17:05:30;;;;;;;4.30;2.50;;;11.30;81.40;;;;;;6253452;28;20038;-80
2021/10/25 17:12:00;;;;;;;5.30;2.17;;;11.00;82.60;;;;;;6262583;28;20045;-80
2021/10/25 17:15:25;;;;;;;3.35;1.90;;;10.90;83.40;;;;;;6253065;28;20062;-81
2021/10/25 17:18:27;;;;;;;7.60;1.60;;;10.80;83.80;;;;;;6249777;28;20046;-80
2021/10/25 17:21:31;;;;;;;7.20;2.40;;;10.70;83.40;;;;;;6250908;28;20073;-80
2021/10/25 17:24:33;;;;;;;3.45;2.17;;;10.50;83.30;;;;;;6252707;28;20050;-81
2021/10/25 17:27:35;;;;;;;4.80;2.40;;;10.40;83.70;;;;;;6254739;28;20049;-81
2021/10/25 17:30:37;;;;;;;2.75;1.65;;;10.30;84.20;;;;;;6252374;28;20060;-81
2021/10/25 17:33:39;;;;;;;5.43;2.10;;;10.10;84.20;;;;;;6253097;28;20048;-79
2021/10/25 17:36:42;;;;;;;4.93;2.33;;;10.00;84.30;;;;;;6256018;28;20050;-80
2021/10/25 17:39:44;;;;;;;4.47;1.90;;;9.90;84.70;;;;;;6257081;28;20045;-82